Time;durP1;ratioP1;P1;durP2;ratioP2;P2;SDS_P1;SDS_P2;PMS_P1;PMS_P2;Temp;Humidity;BMP_temperature;BMP_pressure;BME280_temperature;BME280_humidity;BME280_pressure;Samples;Min_cycle;Max_cycle;Signal;HPM_P1;HPM_P2
2021/11/13 00:00:27;;;;;;;338.02;25.20;;;1.60;99.90;;;0.38;100.00;61035.91;5070809;28;20454;-76
2021/11/13 00:02:54;;;;;;;154.43;18.20;;;1.60;99.90;;;0.36;100.00;61033.25;5070876;28;20127;-77
2021/11/13 00:05:21;;;;;;;362.63;28.90;;;1.40;99.90;;;0.32;100.00;61029.34;5088996;28;20075;-77
2021/11/13 00:07:48;;;;;;;335.00;27.38;;;1.40;99.90;;;0.26;100.00;61023.69;5073598;28;20127;-76
2021/11/13 00:10:18;;;;;;;303.50;24.15;;;1.20;99.90;;;0.20;100.00;61017.47;5078623;28;20083;-76
2021/11/13 00:12:45;;;;;;;225.75;20.17;;;1.10;99.90;;;0.15;100.00;61012.22;5078312;28;20148;-75
2021/11/13 00:15:15;;;;;;;267.58;22.42;;;1.00;99.90;;;0.09;100.00;61006.19;5073890;28;20567;-77
2021/11/13 00:17:42;;;;;;;233.93;21.83;;;1.00;99.90;;;0.03;100.00;60999.81;5060219;28;20045;-76
2021/11/13 00:20:09;;;;;;;127.15;14.80;;;0.90;99.90;;;-0.02;100.00;60995.25;5090281;28;20502;-76
2021/11/13 00:22:36;;;;;;;304.90;23.35;;;0.80;99.90;;;-0.07;100.00;60989.59;5090698;28;20457;-76
2021/11/13 00:25:04;;;;;;;317.27;28.58;;;0.80;99.90;;;-0.13;100.00;60983.56;5086169;28;20067;-75
2021/11/13 00:27:31;;;;;;;365.05;29.17;;;0.70;99.90;;;-0.19;100.00;60977.38;5094649;28;20332;-77
2021/11/13 00:29:58;;;;;;;294.98;28.55;;;0.70;99.90;;;-0.25;100.00;60971.69;5091969;28;20064;-78
2021/11/13 00:32:25;;;;;;;59.55;13.98;;;0.70;99.90;;;-0.29;100.00;60967.03;5073322;28;20047;-77
2021/11/13 00:34:52;;;;;;;36.40;12.32;;;0.70;99.90;;;-0.34;100.00;60962.84;5074657;28;20044;-76
2021/11/13 00:37:19;;;;;;;43.28;15.82;;;0.60;99.90;;;-0.37;100.00;60958.94;5086916;28;20064;-76
2021/11/13 00:39:46;;;;;;;68.68;15.77;;;0.60;99.90;;;-0.40;100.00;60955.84;5091769;28;20048;-76
2021/11/13 00:42:13;;;;;;;107.55;19.48;;;0.70;99.90;;;-0.44;100.00;60952.34;5089533;28;20424;-77
2021/11/13 00:44:41;;;;;;;51.80;16.20;;;0.60;99.90;;;-0.47;100.00;60949.03;5043242;28;20140;-76
2021/11/13 00:47:08;;;;;;;42.55;13.70;;;0.60;99.90;;;-0.50;100.00;60946.63;5086135;28;20405;-73
2021/11/13 00:49:36;;;;;;;43.22;14.52;;;0.60;99.90;;;-0.53;100.00;60943.91;5080296;28;20510;-75
2021/11/13 00:52:04;;;;;;;36.45;13.10;;;0.50;99.90;;;-0.55;100.00;60941.22;5089079;28;20087;-75
2021/11/13 00:54:33;;;;;;;35.97;13.25;;;0.60;99.90;;;-0.58;100.00;60938.56;5080600;28;20138;-75
2021/11/13 00:57:04;;;;;;;32.65;13.63;;;0.50;99.90;;;-0.60;100.00;60936.56;5065230;28;20301;-75
2021/11/13 00:59:32;;;;;;;28.33;11.90;;;0.50;99.90;;;-0.63;100.00;60934.00;5084844;28;20481;-74
2021/11/13 01:02:05;;;;;;;26.75;11.75;;;0.60;99.90;;;-0.64;100.00;60932.09;5089903;28;20040;-75
2021/11/13 01:04:34;;;;;;;31.55;12.90;;;0.50;99.90;;;-0.66;100.00;60930.25;5087648;28;20581;-75
2021/11/13 01:07:01;;;;;;;20.02;10.05;;;0.50;99.90;;;-0.67;100.00;60929.41;5090055;28;20194;-73
2021/11/13 01:09:28;;;;;;;19.35;11.00;;;0.50;99.90;;;-0.67;100.00;60929.28;5077938;28;20040;-75
2021/11/13 01:11:56;;;;;;;19.52;10.05;;;0.50;99.90;;;-0.67;100.00;60929.28;5091825;28;20230;-75
2021/11/13 01:14:25;;;;;;;16.08;8.73;;;0.60;99.90;;;-0.66;100.00;60929.94;5053934;28;20130;-75
2021/11/13 01:16:53;;;;;;;24.92;11.20;;;0.60;99.90;;;-0.67;100.00;60929.50;5088150;28;20139;-75
2021/11/13 01:19:21;;;;;;;20.98;10.38;;;0.60;99.90;;;-0.67;100.00;60929.56;5070164;28;20131;-75
2021/11/13 01:21:48;;;;;;;26.25;12.02;;;0.70;99.90;;;-0.68;100.00;60928.53;5071207;28;20123;-75
2021/11/13 01:24:16;;;;;;;35.65;12.73;;;0.60;99.90;;;-0.69;100.00;60927.59;5088543;28;20079;-74
2021/11/13 01:26:43;;;;;;;75.43;16.48;;;0.60;99.90;;;-0.71;100.00;60925.16;5076770;28;20147;-75
2021/11/13 01:29:10;;;;;;;46.10;14.90;;;0.60;99.90;;;-0.74;100.00;60923.47;5068729;28;20101;-75
2021/11/13 01:31:37;;;;;;;28.90;12.68;;;0.60;99.90;;;-0.75;100.00;60922.28;5085606;28;20071;-75
2021/11/13 01:34:03;;;;;;;24.70;11.45;;;0.60;99.90;;;-0.75;100.00;60922.03;5056222;28;20138;-75
2021/11/13 01:36:30;;;;;;;27.30;11.10;;;0.60;99.90;;;-0.75;100.00;60921.72;5086069;28;20115;-75
2021/11/13 01:38:57;;;;;;;23.40;10.68;;;0.60;99.90;;;-0.75;100.00;60921.25;5090565;28;20059;-75
2021/11/13 01:41:26;;;;;;;25.60;10.70;;;0.50;99.90;;;-0.75;100.00;60921.41;5091631;28;20071;-75
2021/11/13 01:43:53;;;;;;;25.05;11.48;;;0.50;99.90;;;-0.75;100.00;60921.38;5089913;28;20067;-75
2021/11/13 01:46:21;;;;;;;46.85;13.15;;;0.50;99.90;;;-0.76;100.00;60920.41;5084278;28;20090;-75
2021/11/13 01:48:48;;;;;;;22.48;10.50;;;0.50;99.90;;;-0.76;100.00;60920.41;5070033;28;20067;-75
2021/11/13 01:51:32;;;;;;;26.92;12.23;;;0.40;99.90;;;-0.77;100.00;60918.91;5085293;28;20048;-75
2021/11/13 01:54:06;;;;;;;23.60;10.23;;;0.40;99.90;;;-0.78;100.00;60917.72;5088226;28;20134;-75
2021/11/13 01:56:40;;;;;;;28.15;12.82;;;0.50;99.90;;;-0.79;100.00;60916.63;5067473;28;20080;-75
2021/11/13 01:59:08;;;;;;;23.70;10.63;;;0.50;99.90;;;-0.80;100.00;60915.75;5068983;28;20068;-75
2021/11/13 02:01:37;;;;;;;25.63;11.48;;;0.50;99.90;;;-0.80;100.00;60915.22;5062598;28;20076;-75
2021/11/13 02:04:05;;;;;;;27.70;12.00;;;0.40;99.90;;;-0.82;100.00;60914.03;5065375;28;20185;-75
2021/11/13 02:06:32;;;;;;;23.63;10.90;;;0.50;99.90;;;-0.82;100.00;60913.47;5068903;28;20064;-75
2021/11/13 02:08:59;;;;;;;24.42;11.93;;;0.50;99.90;;;-0.82;100.00;60913.16;5038073;28;20112;-75
2021/11/13 02:11:27;;;;;;;22.50;12.18;;;0.60;99.90;;;-0.82;100.00;60913.31;5091213;28;20127;-74
2021/11/13 02:13:55;;;;;;;24.65;11.15;;;0.60;99.90;;;-0.82;100.00;60913.56;5071942;28;20044;-75
2021/11/13 02:16:22;;;;;;;31.42;14.00;;;0.70;99.90;;;-0.81;100.00;60914.53;5086462;28;20517;-76
2021/11/13 02:18:50;;;;;;;23.00;10.90;;;0.70;99.90;;;-0.80;100.00;60916.06;5088705;28;20147;-76
2021/11/13 02:21:17;;;;;;;24.35;12.88;;;0.80;99.90;;;-0.78;100.00;60917.34;5086463;28;20105;-75
2021/11/13 02:23:44;;;;;;;23.42;12.25;;;1.00;99.90;;;-0.76;100.00;60919.19;5070840;28;20068;-75
2021/11/13 02:26:12;;;;;;;22.20;12.40;;;1.00;99.90;;;-0.74;100.00;60921.41;5068261;28;20083;-75
2021/11/13 02:28:39;;;;;;;21.63;11.50;;;1.10;99.90;;;-0.72;100.00;60923.53;5088059;28;20155;-75
2021/11/13 02:31:10;;;;;;;19.80;10.85;;;1.20;99.90;;;-0.69;100.00;60927.19;5066613;28;20044;-75
2021/11/13 02:33:37;;;;;;;20.85;11.25;;;1.10;99.90;;;-0.65;100.00;60930.81;5071846;28;20612;-75
2021/11/13 02:36:08;;;;;;;20.15;11.13;;;1.20;99.90;;;-0.61;100.00;60934.75;5089829;28;20044;-76
2021/11/13 02:38:40;;;;;;;25.20;13.40;;;1.30;99.90;;;-0.57;100.00;60938.47;5085189;28;20068;-76
2021/11/13 02:41:11;;;;;;;24.35;13.55;;;1.30;99.90;;;-0.54;100.00;60941.84;5074991;28;20119;-75
2021/11/13 02:43:39;;;;;;;19.48;11.35;;;1.40;99.90;;;-0.50;100.00;60946.03;5066812;28;20127;-75
2021/11/13 02:46:09;;;;;;;19.92;11.43;;;1.50;99.90;;;-0.46;100.00;60950.22;5052840;28;20127;-75
2021/11/13 02:48:40;;;;;;;22.42;13.23;;;1.60;99.90;;;-0.42;100.00;60953.91;5070042;28;20131;-75
2021/11/13 02:51:09;;;;;;;18.67;10.95;;;1.60;99.90;;;-0.38;100.00;60957.97;5068479;28;20098;-75
2021/11/13 02:53:37;;;;;;;21.75;12.82;;;1.70;99.90;;;-0.34;100.00;60962.31;5055374;28;20067;-75
2021/11/13 02:56:07;;;;;;;19.30;11.63;;;1.70;99.90;;;-0.30;100.00;60966.25;5073870;28;20127;-75
2021/11/13 02:58:36;;;;;;;21.58;13.05;;;1.70;99.90;;;-0.27;100.00;60969.88;5078336;28;20564;-75
2021/11/13 03:01:11;;;;;;;23.50;13.10;;;1.70;99.90;;;-0.24;100.00;60973.13;5090849;28;20055;-75
2021/11/13 03:03:39;;;;;;;19.33;12.10;;;1.80;99.90;;;-0.20;100.00;60977.31;5072468;28;20155;-76
2021/11/13 03:06:12;;;;;;;23.15;12.25;;;1.90;99.90;;;-0.16;100.00;60980.75;5079167;28;20123;-75
2021/11/13 03:08:42;;;;;;;19.92;12.27;;;2.00;99.90;;;-0.12;100.00;60985.09;5084105;28;20131;-75
2021/11/13 03:11:13;;;;;;;19.63;10.70;;;2.00;99.90;;;-0.07;100.00;60989.81;5089030;28;20127;-75
2021/11/13 03:13:44;;;;;;;19.05;10.88;;;2.10;99.90;;;-0.02;100.00;60994.91;5070895;28;20166;-74
2021/11/13 03:16:13;;;;;;;20.63;12.30;;;2.20;99.90;;;0.02;100.00;60999.81;5072903;28;20127;-75
2021/11/13 03:18:40;;;;;;;22.13;13.32;;;2.20;99.90;;;0.06;100.00;61003.56;5093261;28;20072;-75
2021/11/13 03:21:08;;;;;;;22.70;12.65;;;2.10;99.90;;;0.10;100.00;61007.44;5072059;28;20044;-75
2021/11/13 03:23:40;;;;;;;21.27;13.07;;;2.10;99.90;;;0.13;100.00;61010.63;5075908;28;20075;-75
2021/11/13 03:26:21;;;;;;;20.50;11.98;;;2.20;99.90;;;0.17;100.00;61015.13;5069330;28;20048;-75
2021/11/13 03:28:52;;;;;;;21.52;12.63;;;2.20;99.90;;;0.21;100.00;61018.44;5059508;28;20070;-75
2021/11/13 03:31:23;;;;;;;19.83;12.02;;;2.20;99.90;;;0.24;100.00;61021.97;5072038;28;20426;-76
2021/11/13 03:33:51;;;;;;;17.52;10.25;;;2.30;99.90;;;0.28;100.00;61025.97;5073431;28;20078;-75
2021/11/13 03:36:20;;;;;;;20.98;13.57;;;2.20;99.90;;;0.32;100.00;61030.06;5088803;28;20221;-75
2021/11/13 03:38:48;;;;;;;22.67;14.38;;;2.20;99.90;;;0.36;100.00;61034.38;5074589;28;20071;-75
2021/11/13 03:41:17;;;;;;;18.45;11.20;;;2.20;99.90;;;0.41;100.00;61038.81;5063116;28;20127;-76
2021/11/13 03:43:45;;;;;;;25.95;14.80;;;2.20;99.90;;;0.45;100.00;61043.53;5076063;28;20044;-76
2021/11/13 03:46:13;;;;;;;17.75;11.95;;;2.30;99.90;;;0.50;100.00;61048.53;5066869;28;20136;-75
2021/11/13 03:48:41;;;;;;;22.95;13.43;;;2.30;99.90;;;0.54;100.00;61052.69;5073974;28;20119;-76
2021/11/13 03:51:09;;;;;;;21.92;13.20;;;2.40;99.90;;;0.59;100.00;61057.31;5075411;28;20103;-76
2021/11/13 03:53:36;;;;;;;23.73;14.73;;;2.50;99.90;;;0.63;100.00;61061.75;5075786;28;20044;-75
2021/11/13 03:56:03;;;;;;;25.13;14.35;;;2.60;99.90;;;0.67;100.00;61065.97;5075800;28;20107;-75
2021/11/13 03:58:30;;;;;;;27.35;15.38;;;2.50;99.90;;;0.70;100.00;61069.34;5089860;28;20081;-75
2021/11/13 04:00:57;;;;;;;24.10;14.55;;;2.50;99.90;;;0.74;100.00;61073.13;5088698;28;20551;-76
2021/11/13 04:03:25;;;;;;;19.05;12.85;;;2.50;99.90;;;0.78;100.00;61077.63;5072043;28;20072;-75
2021/11/13 04:05:51;;;;;;;20.67;12.45;;;2.50;99.90;;;0.81;100.00;61081.25;5092352;28;20200;-75
2021/11/13 04:08:19;;;;;;;19.00;11.57;;;2.50;99.90;;;0.85;100.00;61084.63;5102589;28;20051;-75
2021/11/13 04:10:46;;;;;;;23.50;13.95;;;2.60;99.90;;;0.88;100.00;61087.44;5101193;28;20076;-75
2021/11/13 04:13:14;;;;;;;21.98;12.52;;;2.70;99.90;;;0.90;100.00;61090.16;5070148;28;20072;-76
2021/11/13 04:15:41;;;;;;;22.90;11.55;;;2.80;99.90;;;0.93;100.00;61093.50;5069875;28;20075;-76
2021/11/13 04:18:08;;;;;;;19.35;11.68;;;2.80;99.90;;;0.96;100.00;61096.34;5084604;28;20076;-75
2021/11/13 04:20:35;;;;;;;22.25;12.38;;;2.90;99.90;;;1.00;100.00;61099.97;5081054;28;20068;-75
2021/11/13 04:23:02;;;;;;;20.60;12.80;;;2.90;99.90;;;1.03;100.00;61103.34;5083293;28;20079;-75
2021/11/13 04:25:29;;;;;;;22.58;11.98;;;2.90;99.90;;;1.07;100.00;61107.28;5066598;28;20076;-75
2021/11/13 04:27:57;;;;;;;21.90;13.07;;;2.90;99.90;;;1.11;100.00;61111.19;5071603;28;20208;-74
2021/11/13 04:30:24;;;;;;;23.10;12.65;;;2.90;99.90;;;1.14;100.00;61115.00;5071292;28;20075;-75
2021/11/13 04:32:52;;;;;;;23.80;13.32;;;2.90;99.90;;;1.18;100.00;61119.31;5088837;28;20135;-74
2021/11/13 04:35:34;;;;;;;24.90;13.52;;;3.00;99.90;;;1.22;100.00;61123.50;5089063;28;20571;-74
2021/11/13 04:38:02;;;;;;;19.55;11.98;;;3.00;99.90;;;1.27;100.00;61127.38;5052433;28;20427;-75
2021/11/13 04:40:34;;;;;;;18.23;10.95;;;3.00;99.90;;;1.31;100.00;61131.22;5053293;28;20041;-75
2021/11/13 04:43:02;;;;;;;26.58;13.35;;;3.00;99.90;;;1.34;100.00;61134.53;5077337;28;20143;-75
2021/11/13 04:45:29;;;;;;;24.00;12.18;;;3.00;99.90;;;1.38;100.00;61138.19;5077953;28;20478;-74
2021/11/13 04:47:56;;;;;;;19.77;11.82;;;3.10;99.90;;;1.41;100.00;61141.66;5086314;28;20079;-75
2021/11/13 04:50:26;;;;;;;22.80;14.25;;;3.10;99.90;;;1.44;100.00;61144.91;5087539;28;20056;-74
2021/11/13 04:52:54;;;;;;;23.85;14.55;;;3.20;99.90;;;1.48;100.00;61148.28;5088668;28;20131;-74
2021/11/13 04:55:21;;;;;;;23.05;14.50;;;3.30;99.90;;;1.51;100.00;61151.53;5083303;28;20059;-74
2021/11/13 04:57:48;;;;;;;18.98;12.85;;;3.30;99.90;;;1.54;100.00;61154.75;5074789;28;20044;-75
2021/11/13 05:00:20;;;;;;;22.83;12.77;;;3.30;99.90;;;1.58;100.00;61158.13;5079589;28;20074;-75
2021/11/13 05:02:48;;;;;;;22.98;14.32;;;3.30;99.90;;;1.60;100.00;61161.00;5092944;28;20078;-74
2021/11/13 05:05:15;;;;;;;22.13;13.95;;;3.40;99.90;;;1.63;100.00;61163.38;5069381;28;20072;-74
2021/11/13 05:07:43;;;;;;;24.75;13.90;;;3.40;99.90;;;1.66;100.00;61166.47;5059097;28;20433;-75
2021/11/13 05:10:11;;;;;;;20.10;12.32;;;3.50;99.90;;;1.69;100.00;61170.13;5088722;28;20083;-75
2021/11/13 05:12:39;;;;;;;19.83;12.25;;;3.50;99.90;;;1.73;100.00;61174.47;5072507;28;20127;-75
2021/11/13 05:15:07;;;;;;;23.70;13.88;;;3.50;99.90;;;1.78;100.00;61179.03;5067431;28;20102;-74
2021/11/13 05:17:35;;;;;;;23.65;13.43;;;3.50;99.90;;;1.83;100.00;61183.59;5075342;28;20083;-75
2021/11/13 05:20:07;;;;;;;27.08;14.05;;;3.50;99.90;;;1.87;100.00;61187.75;5080332;28;20071;-74
2021/11/13 05:22:40;;;;;;;22.53;13.33;;;3.50;99.90;;;1.90;100.00;61191.13;5066130;28;20071;-75
2021/11/13 05:25:10;;;;;;;24.77;13.77;;;3.60;99.90;;;1.94;100.00;61194.75;5070021;28;20135;-75
2021/11/13 05:27:38;;;;;;;22.33;13.65;;;3.60;99.90;;;1.97;100.00;61197.72;5071515;28;20181;-75
2021/11/13 05:30:08;;;;;;;21.63;12.98;;;3.70;99.90;;;2.00;100.00;61201.34;5092460;28;20488;-75
2021/11/13 05:32:35;;;;;;;24.80;13.80;;;3.70;99.90;;;2.03;100.00;61204.44;5072651;28;20104;-75
2021/11/13 05:35:03;;;;;;;23.42;12.82;;;3.70;99.90;;;2.07;100.00;61207.81;5091741;28;20135;-74
2021/11/13 05:37:30;;;;;;;24.48;13.05;;;3.70;99.90;;;2.09;100.00;61210.78;5092301;28;20429;-74
2021/11/13 05:39:57;;;;;;;23.02;13.88;;;3.80;99.90;;;2.13;100.00;61213.88;5053505;28;20076;-75
2021/11/13 05:42:24;;;;;;;23.35;14.15;;;3.80;99.90;;;2.15;100.00;61216.72;5089297;28;20068;-74
2021/11/13 05:44:51;;;;;;;20.90;13.30;;;3.90;99.90;;;2.19;100.00;61220.84;5068911;28;20079;-75
2021/11/13 05:47:18;;;;;;;27.08;13.45;;;3.90;99.90;;;2.22;100.00;61223.88;5087745;28;20458;-75
2021/11/13 05:49:46;;;;;;;22.95;14.27;;;3.90;99.90;;;2.26;100.00;61227.69;5092194;28;20047;-75
2021/11/13 05:52:13;;;;;;;25.63;14.32;;;3.90;99.90;;;2.29;100.00;61231.63;5071830;28;20075;-75
2021/11/13 05:54:40;;;;;;;21.77;13.18;;;4.00;99.90;;;2.33;100.00;61235.44;5091011;28;20059;-74
2021/11/13 05:57:08;;;;;;;24.23;14.82;;;4.00;99.90;;;2.37;100.00;61239.19;5065274;28;20040;-74
2021/11/13 05:59:53;;;;;;;24.35;13.07;;;4.00;99.90;;;2.41;100.00;61243.94;5090226;28;20606;-74
2021/11/13 06:02:21;;;;;;;26.10;14.07;;;4.00;99.90;;;2.45;100.00;61247.91;5092136;28;20171;-75
2021/11/13 06:04:48;;;;;;;31.60;15.45;;;4.10;99.90;;;2.48;100.00;61250.56;5075691;28;20123;-75
2021/11/13 06:07:16;;;;;;;22.92;13.82;;;4.10;99.90;;;2.51;100.00;61253.50;5090804;28;20040;-75
2021/11/13 06:09:43;;;;;;;26.40;15.60;;;4.20;99.90;;;2.54;100.00;61256.91;5067961;28;20155;-74
2021/11/13 06:12:10;;;;;;;27.08;14.50;;;4.20;99.90;;;2.57;100.00;61260.25;5088461;28;20146;-75
2021/11/13 06:14:37;;;;;;;21.55;13.77;;;4.20;99.90;;;2.61;100.00;61264.44;5074251;28;20119;-74
2021/11/13 06:17:05;;;;;;;25.33;14.90;;;4.20;99.90;;;2.65;100.00;61267.56;5091848;28;20166;-75
2021/11/13 06:19:32;;;;;;;30.73;17.50;;;4.20;99.90;;;2.68;100.00;61270.91;5089075;28;21670;-75
2021/11/13 06:21:59;;;;;;;24.98;15.70;;;4.20;99.90;;;2.70;100.00;61273.78;5091419;28;20072;-75
2021/11/13 06:24:26;;;;;;;28.60;16.05;;;4.20;99.90;;;2.73;100.00;61276.75;5065411;28;20080;-74
2021/11/13 06:26:54;;;;;;;28.48;15.80;;;4.20;99.90;;;2.76;100.00;61279.63;5059928;28;20442;-74
2021/11/13 06:29:21;;;;;;;31.63;17.42;;;4.30;99.90;;;2.78;100.00;61282.22;5060082;28;20123;-74
2021/11/13 06:31:49;;;;;;;30.77;17.80;;;4.40;99.90;;;2.80;100.00;61284.53;5080588;28;20135;-74
2021/11/13 06:34:16;;;;;;;26.20;16.02;;;4.40;99.90;;;2.83;100.00;61286.81;5063168;28;20049;-75
2021/11/13 06:36:43;;;;;;;37.40;20.70;;;4.30;99.90;;;2.84;100.00;61288.28;5048717;28;20100;-75
2021/11/13 06:39:10;;;;;;;39.13;19.52;;;4.30;99.90;;;2.86;100.00;61290.47;5072833;28;20127;-75
2021/11/13 06:41:37;;;;;;;47.85;22.08;;;4.30;99.90;;;2.88;100.00;61292.78;5081972;28;20124;-74
2021/11/13 06:44:04;;;;;;;38.85;19.90;;;4.40;99.90;;;2.90;100.00;61294.66;5085610;28;20529;-75
2021/11/13 06:46:32;;;;;;;34.10;18.02;;;4.40;99.90;;;2.92;100.00;61296.66;5069483;28;20099;-75
2021/11/13 06:48:58;;;;;;;45.20;22.73;;;4.30;99.90;;;2.95;100.00;61299.31;5090263;28;20110;-74
2021/11/13 06:51:25;;;;;;;54.15;23.95;;;4.40;99.90;;;2.96;100.00;61301.34;5073876;28;20123;-75
2021/11/13 06:53:52;;;;;;;44.47;22.23;;;4.40;99.90;;;2.98;100.00;61302.94;5089708;28;20473;-75
2021/11/13 06:56:20;;;;;;;46.95;21.25;;;4.40;99.90;;;3.00;100.00;61305.28;5088735;28;20459;-74
2021/11/13 06:58:47;;;;;;;45.20;23.25;;;4.40;99.90;;;3.02;100.00;61307.56;5042349;28;20044;-75
2021/11/13 07:01:15;;;;;;;52.90;21.63;;;4.50;99.90;;;3.05;100.00;61309.69;5087002;28;20124;-75
2021/11/13 07:03:42;;;;;;;66.90;26.02;;;4.40;99.90;;;3.07;100.00;61311.28;5075710;28;20075;-74
2021/11/13 07:06:09;;;;;;;48.17;22.73;;;4.60;99.90;;;3.09;100.00;61314.16;5088632;28;20048;-74
2021/11/13 07:08:37;;;;;;;53.20;22.60;;;4.60;99.90;;;3.12;100.00;61316.69;5100619;28;20051;-75
2021/11/13 07:11:04;;;;;;;63.08;26.52;;;4.60;99.90;;;3.13;100.00;61318.44;5070198;28;20052;-74
2021/11/13 07:13:31;;;;;;;61.30;25.65;;;4.60;99.90;;;3.16;100.00;61320.69;5070625;28;20083;-75
2021/11/13 07:15:58;;;;;;;49.28;21.35;;;4.60;99.90;;;3.18;100.00;61322.97;5083458;28;20120;-75
2021/11/13 07:18:25;;;;;;;49.15;23.55;;;4.60;99.90;;;3.21;100.00;61325.94;5068772;28;20112;-76
2021/11/13 07:21:00;;;;;;;46.10;21.42;;;4.70;99.90;;;3.24;100.00;61328.34;5074996;28;20059;-74
2021/11/13 07:23:30;;;;;;;58.10;22.60;;;4.70;99.90;;;3.26;100.00;61330.91;5054726;28;20044;-76
2021/11/13 07:25:59;;;;;;;66.60;25.60;;;4.70;99.90;;;3.29;100.00;61333.47;5090427;28;20164;-76
2021/11/13 07:28:38;;;;;;;77.95;28.20;;;4.80;99.90;;;3.32;100.00;61336.47;5072042;28;20172;-76
2021/11/13 07:31:09;;;;;;;53.88;19.35;;;4.80;99.90;;;3.34;100.00;61339.13;5078450;28;20500;-74
2021/11/13 07:33:38;;;;;;;47.50;19.83;;;4.90;99.90;;;3.37;100.00;61342.25;5101403;28;20377;-75
2021/11/13 07:36:07;;;;;;;79.15;24.55;;;4.90;99.90;;;3.40;100.00;61345.00;5078188;28;20080;-74
2021/11/13 07:38:34;;;;;;;78.75;24.55;;;4.90;99.90;;;3.42;100.00;61347.59;5072891;28;20107;-77
2021/11/13 07:41:03;;;;;;;61.15;23.23;;;4.90;99.90;;;3.45;100.00;61350.47;5072163;28;20559;-75
2021/11/13 07:43:30;;;;;;;41.50;18.70;;;4.90;99.90;;;3.48;100.00;61353.28;5083566;28;20097;-74
2021/11/13 07:45:57;;;;;;;85.82;24.95;;;4.90;99.90;;;3.50;100.00;61356.28;5073040;28;20090;-74
2021/11/13 07:48:24;;;;;;;53.05;22.63;;;4.90;99.90;;;3.53;100.00;61358.94;5063579;28;20059;-74
2021/11/13 07:50:51;;;;;;;64.35;21.98;;;5.00;99.90;;;3.56;100.00;61361.94;5090420;28;20123;-75
2021/11/13 07:53:18;;;;;;;91.40;27.52;;;5.00;99.90;;;3.59;100.00;61364.88;5097338;28;20106;-75
2021/11/13 07:55:45;;;;;;;75.03;23.80;;;5.00;99.90;;;3.62;100.00;61367.28;5087782;28;20048;-75
2021/11/13 07:58:15;;;;;;;95.03;29.00;;;5.10;99.90;;;3.64;100.00;61369.84;5090629;28;20139;-75
2021/11/13 08:00:49;;;;;;;70.32;23.98;;;5.10;99.90;;;3.67;100.00;61372.97;5064924;28;20447;-75
2021/11/13 08:03:17;;;;;;;65.70;25.37;;;5.10;99.90;;;3.70;100.00;61375.56;5087523;28;20475;-74
2021/11/13 08:05:45;;;;;;;61.33;23.38;;;5.20;99.90;;;3.72;100.00;61378.44;5075405;28;20397;-74
2021/11/13 08:08:13;;;;;;;86.47;29.02;;;5.20;99.90;;;3.75;100.00;61380.81;5088347;28;20111;-75
2021/11/13 08:10:43;;;;;;;87.70;28.65;;;5.20;99.90;;;3.77;100.00;61383.53;5074051;28;20076;-74
2021/11/13 08:13:18;;;;;;;78.45;26.13;;;5.20;99.90;;;3.79;100.00;61385.41;5057820;28;20064;-74
2021/11/13 08:15:48;;;;;;;79.13;26.25;;;5.30;99.90;;;3.82;100.00;61387.69;5062738;28;20052;-73
2021/11/13 08:18:17;;;;;;;100.75;31.00;;;5.40;99.90;;;3.83;100.00;61389.28;5076507;28;20109;-75
2021/11/13 08:20:45;;;;;;;94.88;27.00;;;5.40;99.90;;;3.85;100.00;61391.28;5074342;28;20470;-74
2021/11/13 08:23:14;;;;;;;73.90;26.60;;;5.30;99.90;;;3.87;100.00;61393.28;5059315;28;20056;-75
2021/11/13 08:25:44;;;;;;;70.13;24.40;;;5.30;99.90;;;3.90;100.00;61395.56;5078376;28;20129;-75
2021/11/13 08:28:13;;;;;;;95.85;29.20;;;5.30;99.90;;;3.91;100.00;61397.38;5092436;28;20059;-76
2021/11/13 08:30:43;;;;;;;57.00;23.42;;;5.40;99.90;;;3.93;100.00;61399.38;5091761;28;20169;-75
2021/11/13 08:33:11;;;;;;;75.53;27.27;;;5.50;99.90;;;3.95;100.00;61401.56;5089234;28;20052;-75
2021/11/13 08:35:42;;;;;;;89.70;32.53;;;5.50;99.90;;;3.98;100.00;61404.44;5059240;28;20498;-75
2021/11/13 08:38:15;;;;;;;82.82;29.08;;;5.50;99.90;;;4.01;100.00;61407.16;5064623;28;20501;-75
2021/11/13 08:40:43;;;;;;;68.57;22.08;;;5.60;99.90;;;4.04;100.00;61410.41;5088250;28;20109;-75
2021/11/13 08:43:14;;;;;;;55.22;21.52;;;5.60;99.90;;;4.07;100.00;61413.63;5091156;28;20506;-74
2021/11/13 08:45:42;;;;;;;62.78;23.17;;;5.70;99.90;;;4.11;100.00;61417.13;5070221;28;20083;-75
2021/11/13 08:48:10;;;;;;;55.50;21.98;;;5.70;99.90;;;4.14;100.00;61420.19;5070233;28;20048;-75
2021/11/13 08:50:37;;;;;;;59.97;22.50;;;5.70;99.90;;;4.17;100.00;61423.69;5084291;28;20048;-76
2021/11/13 08:53:06;;;;;;;104.47;30.60;;;5.80;99.90;;;4.20;100.00;61426.44;5064012;28;20076;-74
2021/11/13 08:55:39;;;;;;;78.75;26.65;;;5.80;99.90;;;4.23;100.00;61429.69;5088680;28;20044;-75
2021/11/13 08:58:08;;;;;;;58.60;23.75;;;5.80;99.90;;;4.25;100.00;61432.41;5097661;28;20040;-76
2021/11/13 09:00:52;;;;;;;79.70;27.63;;;5.90;99.90;;;4.28;100.00;61435.34;5058519;28;20050;-75
2021/11/13 09:03:37;;;;;;;96.20;27.13;;;5.90;99.90;;;4.31;100.00;61438.03;5074249;28;20123;-75
2021/11/13 09:06:11;;;;;;;103.30;28.67;;;6.00;99.90;;;4.35;100.00;61441.09;5065285;28;20127;-76
2021/11/13 09:08:40;;;;;;;67.60;24.15;;;6.10;99.90;;;4.38;100.00;61444.63;5070199;28;20075;-76
2021/11/13 09:11:11;;;;;;;46.13;20.50;;;6.10;99.90;;;4.42;100.00;61448.41;5092414;28;20466;-75
2021/11/13 09:13:39;;;;;;;59.95;22.85;;;6.20;99.90;;;4.45;100.00;61452.25;5062857;28;20130;-76
2021/11/13 09:16:09;;;;;;;71.13;23.50;;;6.20;99.90;;;4.48;100.00;61455.28;5073031;28;20079;-76
2021/11/13 09:18:38;;;;;;;60.63;25.98;;;6.20;99.90;;;4.51;100.00;61458.13;5060688;28;20044;-75
2021/11/13 09:21:10;;;;;;;50.20;21.25;;;6.20;99.90;;;4.54;100.00;61461.22;5090646;28;20557;-76
2021/11/13 09:23:39;;;;;;;73.80;26.95;;;6.20;99.90;;;4.56;100.00;61463.25;5060820;28;20048;-75
2021/11/13 09:26:07;;;;;;;70.60;26.45;;;6.30;99.90;;;4.59;100.00;61465.53;5037970;28;20045;-75
2021/11/13 09:28:36;;;;;;;61.10;23.38;;;6.30;99.90;;;4.62;100.00;61468.91;5072066;28;20060;-75
2021/11/13 09:31:04;;;;;;;40.60;18.85;;;6.30;99.90;;;4.66;100.00;61472.56;5068888;28;20109;-76
2021/11/13 09:33:32;;;;;;;64.03;26.30;;;6.20;99.90;;;4.68;100.00;61475.38;5098868;28;20446;-76
2021/11/13 09:35:59;;;;;;;61.05;24.08;;;6.30;99.90;;;4.71;100.00;61477.75;5095041;28;20078;-76
2021/11/13 09:38:33;;;;;;;60.90;24.70;;;6.30;99.90;;;4.74;100.00;61480.03;5071891;28;20063;-76
2021/11/13 09:41:04;;;;;;;52.00;23.70;;;6.30;99.90;;;4.77;100.00;61484.06;5065269;28;20054;-76
2021/11/13 09:43:33;;;;;;;72.45;23.98;;;6.30;99.90;;;4.79;100.00;61486.09;5068376;28;20072;-76
2021/11/13 09:46:03;;;;;;;50.47;23.42;;;6.40;99.90;;;4.81;100.00;61489.09;5058275;28;20488;-76
2021/11/13 09:48:31;;;;;;;51.72;19.73;;;6.50;99.90;;;4.85;100.00;61492.19;5086513;28;20127;-76
2021/11/13 09:50:58;;;;;;;63.28;24.65;;;6.50;99.90;;;4.86;100.00;61494.09;5053292;28;20054;-76
2021/11/13 09:53:29;;;;;;;48.40;21.35;;;6.50;99.90;;;4.89;100.00;61496.56;5073838;28;20075;-76
2021/11/13 09:55:58;;;;;;;42.85;20.55;;;6.50;99.90;;;4.91;100.00;61499.16;5066378;28;20048;-76
2021/11/13 09:58:26;;;;;;;56.78;23.92;;;6.50;99.90;;;4.93;100.00;61500.91;5074464;28;20048;-76
2021/11/13 10:00:54;;;;;;;45.17;21.55;;;6.50;99.90;;;4.95;100.00;61503.22;5093591;28;20040;-75
2021/11/13 10:03:22;;;;;;;46.10;20.38;;;6.60;99.90;;;4.98;100.00;61506.47;5101883;28;20050;-74
2021/11/13 10:05:55;;;;;;;52.80;21.27;;;6.60;99.90;;;5.01;100.00;61509.19;5073860;28;20094;-76
2021/11/13 10:08:23;;;;;;;47.67;21.77;;;6.50;99.90;;;5.03;100.00;61511.69;5089268;28;20040;-76
2021/11/13 10:10:59;;;;;;;39.88;19.25;;;6.60;99.90;;;5.07;100.00;61515.63;5073562;28;20228;-76
2021/11/13 10:13:28;;;;;;;34.45;17.63;;;6.70;99.90;;;5.10;100.00;61518.34;5090337;28;20575;-76
2021/11/13 10:16:05;;;;;;;51.53;22.60;;;6.70;99.90;;;5.11;100.00;61520.44;5081449;28;20392;-76